22:18
Airports
Links
Donate
Help keep this website running!
PayPal
Bitcoin
METAR
LFPG 172200Z 10005KT 6000 NSC 16/15 Q1015 TEMPO 3000 BR
Current Weather Conditions at LFPG
MVFR 22:00:00 17-10-17
Altimeter:29.97 hg
Temp:16.0°c 61°f
Dew point:15.0°c 59°f
Wind:5 knots, 5.8 mph, 3 m/s, from 100°
Visibility:3.73 statute miles
(CLR) Clear
Past METAR reports
MVFR 21:30:00 17-10-17
Altimeter:29.97 hg
Temp:16.0°c 61°f
Dew point:14.0°c 57°f
Wind:5 knots, 5.8 mph, 3 m/s, from 70°
Visibility:3.73 statute miles
(CLR) Clear
LFPG 172130Z 07005KT 6000 NSC 16/14 Q1015 TEMPO 3000 BR
MVFR 21:00:00 17-10-17
Altimeter:29.97 hg
Temp:16.0°c 61°f
Dew point:14.0°c 57°f
Wind:7 knots, 8.1 mph, 4 m/s, from 60°
Visibility:3.73 statute miles
(CLR) Clear
No significant weather changes expected within 2 hours.
LFPG 172100Z 06007KT 6000 NSC 16/14 Q1015 NOSIG
MVFR 20:30:00 17-10-17
Altimeter:29.97 hg
Temp:16.0°c 61°f
Dew point:15.0°c 59°f
Wind:7 knots, 8.1 mph, 4 m/s, from 60°
Visibility:3.73 statute miles
(CLR) Clear
No significant weather changes expected within 2 hours.
LFPG 172030Z 06007KT 6000 NSC 16/15 Q1015 NOSIG
MVFR 20:00:00 17-10-17
Altimeter:29.97 hg
Temp:17.0°c 63°f
Dew point:15.0°c 59°f
Wind:7 knots, 8.1 mph, 4 m/s, from 50°
Visibility:3.73 statute miles
(CLR) Clear
No significant weather changes expected within 2 hours.
LFPG 172000Z 05007KT 6000 NSC 17/15 Q1015 NOSIG
MVFR 19:30:00 17-10-17
Altimeter:29.97 hg
Temp:17.0°c 63°f
Dew point:15.0°c 59°f
Wind:6 knots, 6.9 mph, 3 m/s, from 60°
Visibility:4.35 statute miles
(CLR) Clear
No significant weather changes expected within 2 hours.
LFPG 171930Z 06006KT 7000 NSC 17/15 Q1015 NOSIG
MVFR 19:00:00 17-10-17
Altimeter:30.00 hg
Temp:18.0°c 64°f
Dew point:16.0°c 61°f
Wind:8 knots, 9.2 mph, 4 m/s, from 70°
Visibility:4.97 statute miles
(CLR) Clear
No significant weather changes expected within 2 hours.
LFPG 171900Z 07008KT 8000 NSC 18/16 Q1016 NOSIG
TAF
TAF AMD LFPG 172025Z 1720/1824 08003KT CAVOK TEMPO 1721/1802 3000 BR PROB30 TEMPO 1722/1802 0800 BCFG TX20/1814Z TN11/1805Z
Forecast at LFPG
20:00 17-10-17 to 00:00 19-10-17
NSW
Wind:3 Knots from 80°
Visibility:6.21 statute miles
NSC
TEMPO 21:00 17-10-17 to 02:00 18-10-17
BR
Visibility:1.86 statute miles
TEMPO 22:00 17-10-17 to 02:00 18-10-17
30% BCFG
Visibility:0.5 statute miles